createdAt,value
2019-01-28T07:46:49.056Z,2.10
2019-01-28T07:47:49.657Z,1.90
2019-01-28T07:48:50.242Z,6.40
2019-01-28T07:49:50.824Z,2.50
2019-01-28T07:50:51.408Z,3.00
2019-01-28T07:51:51.973Z,2.50
2019-01-28T07:52:52.558Z,3.40
2019-01-28T07:53:53.116Z,3.20
2019-01-28T07:54:53.680Z,2.20
2019-01-28T07:55:54.239Z,3.70
2019-01-28T07:56:54.801Z,10.90
2019-01-28T07:57:55.402Z,3.70
2019-01-28T07:58:55.954Z,3.30
2019-01-28T07:59:56.500Z,2.80
2019-01-28T08:00:57.054Z,3.30
2019-01-28T08:01:57.603Z,3.00
2019-01-28T08:02:58.163Z,3.90
2019-01-28T08:03:58.707Z,7.20
2019-01-28T08:04:59.259Z,4.90
2019-01-28T08:05:59.809Z,5.10
2019-01-28T08:07:00.354Z,2.90
2019-01-28T08:08:00.915Z,3.20
2019-01-28T08:09:01.479Z,2.80
2019-01-28T08:10:02.038Z,3.90
2019-01-28T08:11:02.587Z,4.00
2019-01-28T08:12:03.145Z,4.00
2019-01-28T08:13:03.713Z,4.10
2019-01-28T08:14:04.261Z,3.20
2019-01-28T08:15:04.810Z,5.10
2019-01-28T08:16:05.361Z,3.90
2019-01-28T08:17:05.911Z,4.30
2019-01-28T08:18:10.908Z,4.90
2019-01-28T08:19:11.719Z,3.50
2019-01-28T08:20:12.268Z,5.00
2019-01-28T08:21:12.804Z,4.60
2019-01-28T08:22:13.340Z,4.30
2019-01-28T08:23:13.901Z,3.90
2019-01-28T08:24:14.579Z,3.60
2019-01-28T08:25:15.115Z,4.30
2019-01-28T08:26:15.659Z,4.40
2019-01-28T08:27:16.197Z,3.70
2019-01-28T08:28:16.780Z,3.90
2019-01-28T08:29:17.289Z,4.40
2019-01-28T08:30:17.821Z,4.50
2019-01-28T08:31:18.353Z,7.70
2019-01-28T08:32:18.895Z,4.40
2019-01-28T08:33:19.457Z,8.60
2019-01-28T08:34:20.042Z,5.20
2019-01-28T08:35:20.590Z,6.50
2019-01-28T08:36:21.123Z,3.70
2019-01-28T08:37:21.659Z,7.40
2019-01-28T08:38:22.217Z,5.80
2019-01-28T08:39:22.803Z,4.10
2019-01-28T08:40:23.335Z,3.90
2019-01-28T08:41:23.874Z,6.50
2019-01-28T08:42:24.411Z,5.10
2019-01-28T08:43:24.969Z,8.00
2019-01-28T08:44:25.521Z,5.10
2019-01-28T08:45:26.077Z,4.80
2019-01-28T08:46:30.229Z,7.30
2019-01-28T08:47:30.963Z,4.50
2019-01-28T08:48:31.520Z,4.10
2019-01-28T08:49:32.052Z,4.40
2019-01-28T08:50:32.591Z,4.60
2019-01-28T08:51:33.125Z,4.70
2019-01-28T08:52:33.724Z,5.90
2019-01-28T08:53:34.284Z,4.80
2019-01-28T08:54:34.827Z,4.40
2019-01-28T08:55:35.360Z,8.70
2019-01-28T08:56:35.894Z,4.20
2019-01-28T08:57:36.465Z,3.90
2019-01-28T08:58:37.004Z,4.10
2019-01-28T08:59:37.537Z,5.10
2019-01-28T09:00:38.080Z,6.60
2019-01-28T09:01:38.605Z,3.90
2019-01-28T09:02:39.171Z,5.10
2019-01-28T09:03:39.705Z,6.70
2019-01-28T09:04:40.233Z,3.90
2019-01-28T09:05:40.771Z,5.60
2019-01-28T09:06:41.311Z,4.10
2019-01-28T09:07:41.900Z,4.70
2019-01-28T09:08:42.431Z,4.00
2019-01-28T09:09:42.961Z,4.90
2019-01-28T09:10:43.517Z,3.60
2019-01-28T09:11:44.058Z,6.20
2019-01-28T09:12:44.629Z,6.50
2019-01-28T09:13:45.167Z,6.10
2019-01-28T09:14:45.708Z,3.70
2019-01-28T09:15:46.264Z,4.10
2019-01-28T09:16:46.813Z,6.40
2019-01-28T09:17:47.396Z,4.40
2019-01-28T09:18:47.932Z,7.20
2019-01-28T09:19:48.505Z,5.30
2019-01-28T09:20:49.053Z,3.50
2019-01-28T09:21:49.586Z,7.40
2019-01-28T09:22:50.168Z,10.00
2019-01-28T09:23:50.701Z,7.20
2019-01-28T09:24:51.235Z,4.70
2019-01-28T09:25:51.770Z,5.30
2019-01-28T09:26:52.313Z,4.40
2019-01-28T09:56:56.073Z,4.10
2019-01-28T09:57:57.192Z,6.20
2019-01-28T09:58:57.821Z,7.50
2019-01-28T10:01:22.128Z,8.20
2019-01-28T10:02:23.710Z,7.50
2019-01-28T10:04:32.195Z,5.80
2019-01-28T10:05:32.809Z,6.20
2019-01-28T10:06:33.427Z,7.10
2019-01-28T10:07:34.047Z,4.00
2019-01-28T10:08:34.677Z,3.70
2019-01-28T10:09:35.299Z,3.20
2019-01-28T10:10:35.917Z,4.30
2019-01-28T10:11:36.535Z,5.50
2019-01-28T10:12:37.153Z,5.10
2019-01-28T10:13:37.782Z,3.80
2019-01-28T10:14:38.396Z,4.80
2019-01-28T10:15:39.001Z,7.30
2019-01-28T10:16:39.615Z,5.60
2019-01-28T10:17:40.226Z,6.40
2019-01-28T10:18:41.886Z,4.60
2019-01-28T10:19:42.762Z,7.20
2019-01-28T10:20:44.750Z,7.60
2019-01-28T10:21:45.582Z,6.00
2019-01-28T10:22:46.190Z,7.40
2019-01-28T10:23:46.830Z,7.80
2019-01-28T10:24:47.452Z,9.30
2019-01-28T10:25:48.118Z,9.00
2019-01-28T10:26:48.735Z,6.20
2019-01-28T10:27:49.357Z,9.10
2019-01-28T10:28:49.996Z,5.60
2019-01-28T10:29:50.610Z,8.50
2019-01-28T10:30:51.226Z,10.50
2019-01-28T10:31:51.845Z,7.70
2019-01-28T10:32:52.463Z,9.50
2019-01-28T10:33:53.087Z,9.50
2019-01-28T10:34:53.718Z,9.10
2019-01-28T10:35:54.445Z,9.20
2019-01-28T10:36:55.080Z,7.50
2019-01-28T10:37:55.701Z,8.00
2019-01-28T10:38:56.345Z,8.60
2019-01-28T10:39:56.959Z,8.20
2019-01-28T10:40:57.574Z,8.70
2019-01-28T10:41:58.188Z,9.20
2019-01-28T10:42:58.802Z,6.90
2019-01-28T10:43:59.426Z,9.10
2019-01-28T10:45:00.052Z,7.50
2019-01-28T10:46:00.717Z,6.80
2019-01-28T10:47:01.342Z,11.80
2019-01-28T10:48:02.004Z,8.10
2019-01-28T10:49:02.448Z,6.30
2019-01-28T10:50:02.865Z,9.60
2019-01-28T10:51:03.286Z,9.00
2019-01-28T10:52:03.701Z,6.60
2019-01-28T10:53:04.120Z,6.20
2019-01-28T10:54:04.553Z,7.90
2019-01-28T10:55:04.980Z,7.30
2019-01-28T10:56:05.397Z,8.20
2019-01-28T10:57:05.822Z,8.10
2019-01-28T10:58:06.242Z,9.90
2019-01-28T10:59:06.686Z,7.70
2019-01-28T11:00:11.466Z,7.00
2019-01-28T11:01:12.225Z,5.90
2019-01-28T11:02:12.648Z,7.10
2019-01-28T11:03:13.083Z,8.60
2019-01-28T11:04:13.526Z,7.60
2019-01-28T11:05:13.971Z,6.80
2019-01-28T11:06:14.397Z,8.10
2019-01-28T11:07:14.814Z,6.90
2019-01-28T11:08:15.232Z,8.70
2019-01-28T11:09:15.715Z,6.00
2019-01-28T11:10:16.169Z,6.30
2019-01-28T11:11:16.603Z,6.50
2019-01-28T11:12:17.132Z,5.30
2019-01-28T11:13:17.590Z,5.80
2019-01-28T11:14:18.023Z,5.20
2019-01-28T11:15:18.574Z,5.80
2019-01-28T11:16:19.044Z,6.50
2019-01-28T11:17:19.482Z,7.40
2019-01-28T11:18:19.946Z,6.00
2019-01-28T11:19:20.396Z,5.30
2019-01-28T11:20:20.952Z,6.10
2019-01-28T11:21:21.445Z,5.10
2019-01-28T11:22:21.882Z,6.00
2019-01-28T11:23:22.347Z,5.30
2019-01-28T11:24:22.901Z,4.20
2019-01-28T11:25:23.411Z,7.20
2019-01-28T11:26:23.887Z,4.70
2019-01-28T11:27:24.323Z,4.50
2019-01-28T11:28:24.898Z,3.50
2019-01-28T11:29:25.497Z,4.10
2019-01-28T11:30:26.200Z,8.50
2019-01-28T11:31:26.966Z,3.20
2019-01-28T11:32:27.712Z,7.60
2019-01-28T11:33:28.335Z,10.90
2019-01-28T11:34:29.040Z,8.10
2019-01-28T11:35:29.717Z,4.60
2019-01-28T11:36:30.352Z,6.40
2019-01-28T11:37:30.985Z,8.40
2019-01-28T11:38:31.633Z,6.30
2019-01-28T11:39:32.305Z,6.40
2019-01-28T11:40:33.029Z,11.30
2019-01-28T11:41:33.774Z,8.40
2019-01-28T11:42:34.427Z,9.10
2019-01-28T11:43:36.069Z,6.50
2019-01-28T11:44:36.717Z,7.30
2019-01-28T11:45:37.513Z,8.80
2019-01-28T11:46:38.189Z,6.20
2019-01-28T11:47:38.837Z,9.50
2019-01-28T11:48:39.572Z,7.70
2019-01-28T11:49:40.224Z,8.40
2019-01-28T11:50:40.855Z,7.60
2019-01-28T11:51:41.469Z,6.90
2019-01-28T11:52:42.086Z,8.00
2019-01-28T11:53:42.706Z,8.40
2019-01-28T11:54:43.349Z,8.00
2019-01-28T11:55:43.962Z,9.30
2019-01-28T11:56:44.571Z,11.80
2019-01-28T11:57:45.188Z,10.00
2019-01-28T11:58:45.798Z,14.80
2019-01-28T11:59:46.430Z,9.30
2019-01-28T12:00:47.039Z,12.20
2019-01-28T12:01:47.654Z,8.20
2019-01-28T12:02:48.268Z,8.20
2019-01-28T12:03:48.886Z,7.70
2019-01-28T12:04:49.570Z,7.80
2019-01-28T12:05:50.187Z,10.20
2019-01-28T12:06:50.790Z,10.00
2019-01-28T12:07:51.390Z,7.20
2019-01-28T12:08:51.996Z,7.60
2019-01-28T12:09:52.626Z,9.50
2019-01-28T12:10:53.226Z,8.10
2019-01-28T12:11:53.840Z,7.40
2019-01-28T12:12:54.449Z,8.50
2019-01-28T12:13:55.066Z,6.60
2019-01-28T12:14:55.702Z,7.30
2019-01-28T12:15:56.325Z,6.80
2019-01-28T12:16:56.841Z,8.70
2019-01-28T12:17:57.262Z,9.60
2019-01-28T12:18:57.692Z,6.20
2019-01-28T12:19:58.131Z,6.70
2019-01-28T12:20:58.552Z,4.60
2019-01-28T12:21:58.983Z,5.60
2019-01-28T12:22:59.429Z,6.50
2019-01-28T12:23:59.866Z,4.80
2019-01-28T12:25:00.335Z,6.30
2019-01-28T12:26:00.764Z,6.60
2019-01-28T12:27:01.217Z,7.00
2019-01-28T12:28:01.642Z,10.10
2019-01-28T12:29:02.071Z,8.60
2019-01-28T12:30:02.517Z,7.90
2019-01-28T12:31:02.954Z,5.20
2019-01-28T12:32:03.393Z,8.70
2019-01-28T12:33:03.837Z,6.00
2019-01-28T12:34:04.268Z,6.60
2019-01-28T12:35:04.711Z,7.20
2019-01-28T12:36:05.146Z,4.90
2019-01-28T12:37:05.623Z,5.00
2019-01-28T12:38:06.053Z,6.00
2019-01-28T12:39:06.481Z,7.50
2019-01-28T12:40:06.928Z,5.80
2019-01-28T12:41:07.355Z,4.70
2019-01-28T12:42:07.783Z,5.90
2019-01-28T12:43:08.380Z,6.20
2019-01-28T12:44:09.019Z,7.00
2019-01-28T12:45:09.641Z,4.80
2019-01-28T12:46:10.269Z,6.50
2019-01-28T12:47:10.894Z,5.00
2019-01-28T12:48:11.510Z,5.70
2019-01-28T12:49:12.126Z,8.10
2019-01-28T12:50:12.754Z,5.70
2019-01-28T12:51:13.364Z,5.30
2019-01-28T12:52:13.974Z,7.40
2019-01-28T12:53:14.618Z,5.80
2019-01-28T12:54:15.233Z,3.00
2019-01-28T12:55:15.875Z,4.40
2019-01-28T12:56:16.490Z,5.10
2019-01-28T12:57:17.105Z,3.60
2019-01-28T12:58:17.729Z,4.30
2019-01-28T12:59:18.418Z,5.30
2019-01-28T13:00:19.042Z,5.50
2019-01-28T13:01:19.650Z,5.50
2019-01-28T13:02:20.262Z,6.80
2019-01-28T13:03:20.866Z,4.90
2019-01-28T13:04:21.474Z,5.70
2019-01-28T13:05:22.107Z,3.50
2019-01-28T13:06:22.711Z,6.00
2019-01-28T13:07:23.344Z,5.30
2019-01-28T13:08:23.955Z,4.20
2019-01-28T13:09:24.559Z,4.30
2019-01-28T13:10:25.188Z,3.30
2019-01-28T13:11:25.792Z,4.30
2019-01-28T13:12:26.390Z,5.60
2019-01-28T13:13:26.995Z,4.40
2019-01-28T13:14:27.610Z,5.30
2019-01-28T13:15:28.287Z,5.50
2019-01-28T13:16:28.901Z,4.80
2019-01-28T13:17:29.511Z,4.90
2019-01-28T13:18:30.120Z,2.80
2019-01-28T13:19:30.727Z,3.00
2019-01-28T13:20:31.356Z,2.50
2019-01-28T13:21:31.965Z,5.30
2019-01-28T13:22:32.566Z,3.80
2019-01-28T13:23:33.173Z,4.10
2019-01-28T13:24:33.788Z,3.80
2019-01-28T13:25:34.402Z,4.50
2019-01-28T13:26:35.044Z,3.30
2019-01-28T13:27:35.676Z,2.90
2019-01-28T13:28:36.276Z,3.10
2019-01-28T13:29:36.872Z,3.50
2019-01-28T13:30:37.513Z,2.60
2019-01-28T13:31:38.221Z,4.40
2019-01-28T13:32:38.830Z,4.00
2019-01-28T13:33:39.446Z,3.20
2019-01-28T13:34:40.052Z,2.80
2019-01-28T13:35:40.683Z,2.90
2019-01-28T13:36:41.284Z,2.30
2019-01-28T13:37:41.888Z,2.60
2019-01-28T13:38:42.492Z,3.20
2019-01-28T13:39:43.099Z,2.50
2019-01-28T13:40:43.725Z,2.50
2019-01-28T13:41:44.344Z,3.00
2019-01-28T13:42:44.949Z,4.70
2019-01-28T13:43:45.558Z,2.20
2019-01-28T13:44:46.768Z,3.30
2019-01-28T13:45:47.437Z,2.90
2019-01-28T13:46:48.061Z,3.00
2019-01-28T13:47:48.670Z,3.40
2019-01-28T13:48:49.269Z,2.30
2019-01-28T13:49:49.874Z,2.50
2019-01-28T13:50:50.484Z,2.80
2019-01-28T13:51:51.072Z,2.40
2019-01-28T13:52:52.447Z,3.90
2019-01-28T13:53:52.873Z,2.30
2019-01-28T13:54:53.314Z,3.00
2019-01-28T13:55:53.748Z,1.70
2019-01-28T13:56:54.171Z,2.20
2019-01-28T13:57:54.595Z,3.00
2019-01-28T13:58:55.009Z,1.70
2019-01-28T13:59:55.436Z,3.00
2019-01-28T14:00:55.880Z,2.90
2019-01-28T14:01:56.298Z,2.50
2019-01-28T14:02:56.725Z,3.10
2019-01-28T14:03:58.593Z,2.20
2019-01-28T14:04:59.079Z,2.50
2019-01-28T14:05:59.522Z,2.40
2019-01-28T14:06:59.952Z,3.70
2019-01-28T14:08:00.381Z,4.70
2019-01-28T14:09:00.813Z,3.30
2019-01-28T14:10:01.250Z,3.20
2019-01-28T14:11:01.709Z,3.30
2019-01-28T14:12:02.153Z,4.30
2019-01-28T14:13:02.595Z,4.30
2019-01-28T14:14:03.029Z,5.10
2019-01-28T14:15:03.472Z,5.80
2019-01-28T14:16:03.929Z,3.20
2019-01-28T14:17:04.354Z,4.20
2019-01-28T14:18:04.797Z,5.50
2019-01-28T14:19:05.257Z,6.20
2019-01-28T14:20:05.692Z,5.60
2019-01-28T14:21:06.171Z,4.20
2019-01-28T14:22:06.623Z,7.20
2019-01-28T14:23:07.072Z,4.80
2019-01-28T14:24:07.500Z,4.00
2019-01-28T14:25:07.928Z,6.60
2019-01-28T14:26:08.376Z,7.60
2019-01-28T14:27:08.809Z,5.90
2019-01-28T14:28:09.243Z,5.90
2019-01-28T14:29:09.682Z,6.20
2019-01-28T14:30:10.124Z,7.00
2019-01-28T14:31:10.570Z,5.90
2019-01-28T14:32:11.010Z,4.90
2019-01-28T14:33:11.431Z,4.50
2019-01-28T14:34:11.851Z,5.60
2019-01-28T14:35:12.298Z,5.30
2019-01-28T14:36:12.752Z,4.30
2019-01-28T14:37:13.171Z,5.20
2019-01-28T14:38:13.602Z,4.70
2019-01-28T14:39:14.051Z,4.10
2019-01-28T14:40:14.493Z,5.10
2019-01-28T14:41:14.936Z,4.00
2019-01-28T14:42:15.359Z,5.40
2019-01-28T14:43:15.791Z,5.60
2019-01-28T14:44:16.285Z,4.50
2019-01-28T14:45:16.716Z,3.60
2019-01-28T14:46:17.156Z,5.90
2019-01-28T14:47:17.585Z,4.80
2019-01-28T14:48:18.023Z,4.70
2019-01-28T14:49:18.446Z,5.50
2019-01-28T14:50:18.888Z,5.30
2019-01-28T14:51:19.328Z,4.70
2019-01-28T14:52:19.761Z,3.20
2019-01-28T14:53:20.198Z,5.00
2019-01-28T14:54:20.646Z,4.10
2019-01-28T14:55:21.075Z,2.90
2019-01-28T14:56:21.522Z,3.90
2019-01-28T14:57:21.960Z,3.80
2019-01-28T14:58:22.391Z,4.80
2019-01-28T14:59:22.832Z,5.60
2019-01-28T15:00:23.262Z,3.30
2019-01-28T15:01:23.711Z,5.30
2019-01-28T15:02:24.147Z,4.20
2019-01-28T15:03:24.598Z,3.70
2019-01-28T15:04:25.084Z,3.60
2019-01-28T15:05:25.519Z,4.30
2019-01-28T15:06:25.984Z,2.90
2019-01-28T15:07:26.427Z,4.70
2019-01-28T15:08:26.862Z,3.40
2019-01-28T15:09:27.297Z,3.70
2019-01-28T15:10:27.726Z,3.50
2019-01-28T15:11:28.173Z,2.80
2019-01-28T15:12:28.596Z,2.80
2019-01-28T15:13:29.946Z,4.00
2019-01-28T15:14:30.373Z,4.40
2019-01-28T15:15:30.805Z,5.50
2019-01-28T15:16:31.264Z,3.50
2019-01-28T15:17:31.703Z,4.40
2019-01-28T15:18:32.145Z,3.50
2019-01-28T15:19:32.572Z,3.70
2019-01-28T15:20:33.000Z,3.20
2019-01-28T15:21:33.462Z,2.70
2019-01-28T15:22:33.892Z,4.30
2019-01-28T15:23:34.325Z,2.20
2019-01-28T15:24:34.747Z,2.80
2019-01-28T15:25:35.184Z,2.30
2019-01-28T15:26:35.999Z,2.80
2019-01-28T15:27:36.436Z,2.70
2019-01-28T15:28:36.861Z,3.00
2019-01-28T15:29:37.290Z,4.20
2019-01-28T15:30:37.750Z,3.90
2019-01-28T15:31:38.248Z,5.80
2019-01-28T15:32:38.699Z,4.30
2019-01-28T15:33:39.130Z,7.20
2019-01-28T15:34:39.602Z,6.10
2019-01-28T15:35:40.064Z,5.80
2019-01-28T15:36:40.504Z,2.80
2019-01-28T15:37:40.937Z,5.50
2019-01-28T15:38:41.378Z,7.40
2019-01-28T15:39:41.814Z,10.50
2019-01-28T15:40:42.239Z,5.10
2019-01-28T15:41:42.684Z,6.90
2019-01-28T15:42:43.108Z,7.10
2019-01-28T15:43:43.530Z,5.50
2019-01-28T15:44:43.953Z,6.80
2019-01-28T15:45:44.377Z,6.20
2019-01-28T15:46:44.823Z,6.80
2019-01-28T15:47:45.257Z,4.10
2019-01-28T15:48:45.694Z,6.90
2019-01-28T15:49:46.128Z,6.00
2019-01-28T15:50:46.563Z,4.50
2019-01-28T15:51:47.129Z,6.80
2019-01-28T15:52:47.561Z,3.80
2019-01-28T15:53:47.989Z,3.50
2019-01-28T15:54:48.425Z,4.60
2019-01-28T15:55:48.863Z,6.60
2019-01-28T15:56:49.340Z,7.40
2019-01-28T15:57:49.768Z,8.80
2019-01-28T15:58:50.370Z,5.50
2019-01-28T15:59:50.985Z,4.70
2019-01-28T16:00:51.617Z,7.90
2019-01-28T16:01:52.281Z,11.30
2019-01-28T16:02:52.922Z,8.20
2019-01-28T16:03:53.552Z,7.50
2019-01-28T16:04:54.177Z,7.60
2019-01-28T16:05:54.805Z,5.60
2019-01-28T16:06:55.432Z,4.40
2019-01-28T16:07:56.057Z,7.60
2019-01-28T16:08:56.688Z,4.90
2019-01-28T16:09:57.316Z,4.60
2019-01-28T16:10:57.952Z,6.30
2019-01-28T16:11:58.591Z,4.30
2019-01-28T16:12:59.213Z,6.20
2019-01-28T16:13:59.839Z,4.90
2019-01-28T16:15:00.527Z,5.70
2019-01-28T16:16:01.140Z,4.80
2019-01-28T16:17:01.803Z,4.70
2019-01-28T16:18:02.422Z,4.10
2019-01-28T16:19:03.039Z,4.90
2019-01-28T16:20:03.914Z,13.90
2019-01-28T16:21:04.736Z,8.50
2019-01-28T16:22:05.707Z,6.90
2019-01-28T16:23:06.551Z,6.90
2019-01-28T16:24:07.160Z,9.60
2019-01-28T16:25:07.778Z,5.60
2019-01-28T16:26:08.420Z,7.20
2019-01-28T16:27:09.480Z,3.10
2019-01-28T16:28:10.098Z,4.50
2019-01-28T16:29:10.716Z,7.10
2019-01-28T16:30:11.339Z,4.80
2019-01-28T16:31:11.959Z,6.20
2019-01-28T16:32:12.625Z,7.70
2019-01-28T16:33:13.235Z,6.70
2019-01-28T16:34:13.854Z,5.50
2019-01-28T16:35:14.463Z,4.80
2019-01-28T16:36:15.089Z,7.40
2019-01-28T16:37:15.757Z,6.20
2019-01-28T16:38:16.364Z,4.60
2019-01-28T16:39:16.970Z,4.60
2019-01-28T16:40:17.586Z,5.90
2019-01-28T16:41:18.201Z,9.80
2019-01-28T16:42:18.841Z,4.80
2019-01-28T16:43:19.450Z,8.10
2019-01-28T16:44:20.063Z,9.80
2019-01-28T16:45:20.684Z,4.60
2019-01-28T16:46:21.300Z,10.10
2019-01-28T16:47:21.934Z,5.80
2019-01-28T16:48:22.566Z,9.30
2019-01-28T16:49:23.183Z,7.80
2019-01-28T16:50:27.169Z,6.80
2019-01-28T16:51:27.920Z,7.50
2019-01-28T16:52:28.553Z,9.20
2019-01-28T16:53:29.239Z,12.90
2019-01-28T16:54:29.859Z,14.40
2019-01-28T16:55:30.465Z,6.80
2019-01-28T16:56:31.091Z,11.70
2019-01-28T16:57:31.908Z,13.00
2019-01-28T16:58:32.511Z,13.00
2019-01-28T16:59:33.122Z,16.90
2019-01-28T17:00:33.738Z,10.80
2019-01-28T17:01:34.368Z,8.20
2019-01-28T17:06:15.266Z,10.60
2019-01-28T17:07:15.855Z,11.30
2019-01-28T17:08:16.461Z,10.40
2019-01-28T17:09:17.054Z,10.60
2019-01-28T17:10:17.672Z,8.80
2019-01-28T17:11:18.272Z,12.00
2019-01-28T17:12:18.869Z,14.00
2019-01-28T17:13:19.486Z,9.90
2019-01-28T17:14:20.073Z,13.20
2019-01-28T17:15:20.652Z,10.50
2019-01-28T17:16:21.223Z,9.30
2019-01-28T17:17:21.805Z,13.80
2019-01-28T17:18:22.400Z,14.00
2019-01-28T17:19:22.987Z,12.60
2019-01-28T17:20:23.577Z,9.30
2019-01-28T17:21:24.159Z,12.30
2019-01-28T17:22:24.747Z,18.10
2019-01-28T17:23:25.359Z,9.40
2019-01-28T17:24:25.948Z,7.10
2019-01-28T17:25:26.560Z,8.90
2019-01-28T17:26:27.212Z,12.80
2019-01-28T17:27:27.819Z,11.40
2019-01-28T17:28:28.475Z,15.10
2019-01-28T17:29:29.065Z,11.30
2019-01-28T17:30:29.652Z,12.80
2019-01-28T17:31:30.268Z,12.10
2019-01-28T17:32:30.838Z,11.10
2019-01-28T17:33:31.434Z,9.70
2019-01-28T17:34:32.019Z,9.70
2019-01-28T17:35:32.596Z,11.70
2019-01-28T17:36:33.184Z,11.10
2019-01-28T17:37:33.770Z,12.20
2019-01-28T17:38:34.412Z,8.90
2019-01-28T17:39:34.992Z,8.60
2019-01-28T17:40:35.570Z,9.80
2019-01-28T17:41:36.152Z,7.20
2019-01-28T17:42:36.754Z,11.00
2019-01-28T17:43:37.367Z,8.50
2019-01-28T17:44:38.165Z,9.00
2019-01-28T17:45:38.757Z,5.90
2019-01-28T17:46:39.337Z,13.30
2019-01-28T17:47:39.934Z,13.80
2019-01-28T17:48:40.575Z,6.20
2019-01-28T17:49:41.179Z,10.40
2019-01-28T17:50:43.826Z,8.60
2019-01-28T17:51:44.624Z,7.80
2019-01-28T17:52:45.203Z,10.60
2019-01-28T17:53:45.828Z,10.30
2019-01-28T17:54:46.422Z,9.40
2019-01-28T17:55:47.029Z,9.50
2019-01-28T17:56:47.562Z,11.00
2019-01-28T17:57:48.057Z,8.20
2019-01-28T18:00:01.712Z,7.30
2019-01-28T18:01:02.219Z,8.20
2019-01-28T18:02:02.993Z,6.90
2019-01-28T18:04:08.130Z,6.60
2019-01-28T18:05:09.093Z,7.50
2019-01-28T18:06:09.709Z,6.60
2019-01-28T18:07:10.326Z,8.80
2019-01-28T18:08:10.952Z,6.40
2019-01-28T18:09:11.588Z,9.30
2019-01-28T18:10:12.195Z,6.60
2019-01-28T18:11:12.823Z,8.70
2019-01-28T18:12:13.437Z,10.40
2019-01-28T18:13:14.040Z,10.40
2019-01-28T18:14:14.709Z,7.90
2019-01-28T18:15:15.347Z,9.20
2019-01-28T18:16:15.952Z,6.40
2019-01-28T18:17:16.561Z,5.50
2019-01-28T18:18:17.194Z,9.00
2019-01-28T18:19:18.196Z,6.40
2019-01-28T18:20:18.801Z,5.80
2019-01-28T18:21:19.476Z,9.50
2019-01-28T18:22:20.080Z,8.20
2019-01-28T18:23:20.696Z,7.20
2019-01-28T18:24:21.341Z,9.40
2019-01-28T18:25:21.958Z,6.90
2019-01-28T18:26:22.565Z,7.30
2019-01-28T18:27:23.170Z,8.40
2019-01-28T18:28:23.767Z,6.70
2019-01-28T18:29:24.408Z,10.60
2019-01-28T18:30:25.013Z,8.10
2019-01-28T18:31:25.614Z,7.60
2019-01-28T18:32:26.221Z,6.10
2019-01-28T18:33:26.832Z,6.30
2019-01-28T18:34:27.461Z,6.80
2019-01-28T18:35:28.058Z,8.20
2019-01-28T18:36:28.665Z,6.40
2019-01-28T18:37:29.228Z,7.80
2019-01-28T18:39:35.312Z,8.00
2019-01-28T18:40:36.233Z,8.50
2019-01-28T18:41:36.884Z,7.10
2019-01-28T18:42:37.537Z,6.70
2019-01-28T18:43:38.199Z,6.40
2019-01-28T18:44:38.884Z,8.80
2019-01-28T18:45:39.581Z,6.20
2019-01-28T18:46:40.223Z,8.60
2019-01-28T18:47:40.865Z,7.30
2019-01-28T18:48:41.549Z,8.80
2019-01-28T18:49:42.265Z,10.10
2019-01-28T18:50:42.899Z,7.40
2019-01-28T18:51:43.538Z,8.90
2019-01-28T18:52:44.201Z,7.20
2019-01-28T18:53:44.836Z,6.90
2019-01-28T18:54:45.500Z,7.10
2019-01-28T18:55:46.141Z,7.60
2019-01-28T18:56:46.788Z,9.20
2019-01-28T18:57:47.443Z,8.50
2019-01-28T18:58:48.096Z,8.00
2019-01-28T18:59:48.798Z,7.90
2019-01-28T19:00:49.638Z,12.00
2019-01-28T19:02:50.114Z,7.60
2019-01-28T19:03:50.751Z,7.30
2019-01-28T19:04:51.388Z,9.60
2019-01-28T19:05:52.080Z,7.80
2019-01-28T19:06:52.684Z,8.70
2019-01-28T19:09:05.212Z,10.10
2019-01-28T19:10:58.899Z,9.30
2019-01-28T19:13:00.934Z,8.40
2019-01-28T19:14:02.002Z,7.00
2019-01-28T19:16:15.563Z,6.40
2019-01-28T19:17:16.663Z,6.80
2019-01-28T19:19:21.902Z,9.20
2019-01-28T19:21:34.580Z,9.60
2019-01-28T19:22:35.795Z,8.50
